sensor_id;sensor_type;location;lat;lon;timestamp;P1;durP1;ratioP1;P2;durP2;ratioP2
7171;SDS011;3627;46.544;14.944;2024-01-16T00:01:08;1.90;;;1.80;;
7171;SDS011;3627;46.544;14.944;2024-01-16T00:03:37;1.83;;;1.73;;
7171;SDS011;3627;46.544;14.944;2024-01-16T00:06:04;1.90;;;1.80;;
7171;SDS011;3627;46.544;14.944;2024-01-16T00:08:31;1.97;;;1.87;;
7171;SDS011;3627;46.544;14.944;2024-01-16T00:10:58;1.80;;;1.70;;
7171;SDS011;3627;46.544;14.944;2024-01-16T00:13:24;1.90;;;1.80;;
7171;SDS011;3627;46.544;14.944;2024-01-16T00:15:51;1.93;;;1.83;;
7171;SDS011;3627;46.544;14.944;2024-01-16T00:18:17;1.90;;;1.80;;
7171;SDS011;3627;46.544;14.944;2024-01-16T00:20:45;1.90;;;1.80;;
7171;SDS011;3627;46.544;14.944;2024-01-16T00:23:11;1.80;;;1.70;;
7171;SDS011;3627;46.544;14.944;2024-01-16T00:25:38;1.80;;;1.70;;
7171;SDS011;3627;46.544;14.944;2024-01-16T00:28:04;1.80;;;1.70;;
7171;SDS011;3627;46.544;14.944;2024-01-16T00:30:31;1.87;;;1.77;;
7171;SDS011;3627;46.544;14.944;2024-01-16T00:32:58;1.90;;;1.80;;
7171;SDS011;3627;46.544;14.944;2024-01-16T00:35:25;2.00;;;1.90;;
7171;SDS011;3627;46.544;14.944;2024-01-16T00:37:52;1.80;;;1.70;;
7171;SDS011;3627;46.544;14.944;2024-01-16T00:40:19;1.80;;;1.70;;
7171;SDS011;3627;46.544;14.944;2024-01-16T00:42:45;1.90;;;1.80;;
7171;SDS011;3627;46.544;14.944;2024-01-16T00:45:11;1.80;;;1.70;;
7171;SDS011;3627;46.544;14.944;2024-01-16T00:47:38;1.90;;;1.80;;
7171;SDS011;3627;46.544;14.944;2024-01-16T00:50:04;1.90;;;1.80;;
7171;SDS011;3627;46.544;14.944;2024-01-16T00:52:31;1.90;;;1.80;;
7171;SDS011;3627;46.544;14.944;2024-01-16T00:54:59;1.90;;;1.80;;
7171;SDS011;3627;46.544;14.944;2024-01-16T00:57:25;2.00;;;1.90;;
7171;SDS011;3627;46.544;14.944;2024-01-16T00:59:51;2.00;;;1.90;;
7171;SDS011;3627;46.544;14.944;2024-01-16T01:02:18;2.00;;;1.90;;
7171;SDS011;3627;46.544;14.944;2024-01-16T01:04:44;1.97;;;1.87;;
7171;SDS011;3627;46.544;14.944;2024-01-16T01:07:12;2.10;;;2.00;;
7171;SDS011;3627;46.544;14.944;2024-01-16T01:09:39;1.90;;;1.80;;
7171;SDS011;3627;46.544;14.944;2024-01-16T01:12:07;1.90;;;1.80;;
7171;SDS011;3627;46.544;14.944;2024-01-16T01:14:34;1.90;;;1.80;;
7171;SDS011;3627;46.544;14.944;2024-01-16T01:17:00;1.93;;;1.83;;
7171;SDS011;3627;46.544;14.944;2024-01-16T01:19:27;1.90;;;1.80;;
7171;SDS011;3627;46.544;14.944;2024-01-16T01:21:53;1.83;;;1.73;;
7171;SDS011;3627;46.544;14.944;2024-01-16T01:24:20;1.93;;;1.83;;
7171;SDS011;3627;46.544;14.944;2024-01-16T01:26:46;2.00;;;1.90;;
7171;SDS011;3627;46.544;14.944;2024-01-16T01:29:14;1.80;;;1.70;;
7171;SDS011;3627;46.544;14.944;2024-01-16T01:31:40;2.00;;;1.90;;
7171;SDS011;3627;46.544;14.944;2024-01-16T01:34:07;1.80;;;1.70;;
7171;SDS011;3627;46.544;14.944;2024-01-16T01:36:33;2.00;;;1.90;;
7171;SDS011;3627;46.544;14.944;2024-01-16T01:38:59;1.90;;;1.80;;
7171;SDS011;3627;46.544;14.944;2024-01-16T01:41:26;1.90;;;1.80;;
7171;SDS011;3627;46.544;14.944;2024-01-16T01:43:52;1.90;;;1.80;;
7171;SDS011;3627;46.544;14.944;2024-01-16T01:46:20;2.13;;;2.03;;
7171;SDS011;3627;46.544;14.944;2024-01-16T01:48:47;2.00;;;1.90;;
7171;SDS011;3627;46.544;14.944;2024-01-16T01:51:14;1.90;;;1.80;;
7171;SDS011;3627;46.544;14.944;2024-01-16T01:53:43;1.90;;;1.80;;
7171;SDS011;3627;46.544;14.944;2024-01-16T01:56:11;1.90;;;1.80;;
7171;SDS011;3627;46.544;14.944;2024-01-16T01:58:38;1.90;;;1.80;;
7171;SDS011;3627;46.544;14.944;2024-01-16T02:01:05;1.90;;;1.80;;
7171;SDS011;3627;46.544;14.944;2024-01-16T02:03:34;1.90;;;1.80;;
7171;SDS011;3627;46.544;14.944;2024-01-16T02:06:01;2.10;;;2.00;;
7171;SDS011;3627;46.544;14.944;2024-01-16T02:08:28;2.00;;;1.90;;
7171;SDS011;3627;46.544;14.944;2024-01-16T02:10:55;2.10;;;2.00;;
7171;SDS011;3627;46.544;14.944;2024-01-16T02:13:21;1.90;;;1.80;;
7171;SDS011;3627;46.544;14.944;2024-01-16T02:15:48;1.90;;;1.80;;
7171;SDS011;3627;46.544;14.944;2024-01-16T02:18:15;2.00;;;1.90;;
7171;SDS011;3627;46.544;14.944;2024-01-16T02:20:42;2.10;;;2.00;;
7171;SDS011;3627;46.544;14.944;2024-01-16T02:23:09;2.00;;;1.90;;
7171;SDS011;3627;46.544;14.944;2024-01-16T02:25:37;1.90;;;1.80;;
7171;SDS011;3627;46.544;14.944;2024-01-16T02:28:04;2.10;;;2.00;;
7171;SDS011;3627;46.544;14.944;2024-01-16T02:30:30;1.97;;;1.87;;
7171;SDS011;3627;46.544;14.944;2024-01-16T02:32:57;2.00;;;1.90;;
7171;SDS011;3627;46.544;14.944;2024-01-16T02:35:23;1.90;;;1.80;;
7171;SDS011;3627;46.544;14.944;2024-01-16T02:37:49;2.00;;;1.90;;
7171;SDS011;3627;46.544;14.944;2024-01-16T02:40:16;2.20;;;2.10;;
7171;SDS011;3627;46.544;14.944;2024-01-16T02:42:43;1.90;;;1.80;;
7171;SDS011;3627;46.544;14.944;2024-01-16T02:45:10;2.00;;;1.90;;
7171;SDS011;3627;46.544;14.944;2024-01-16T02:47:36;2.00;;;1.90;;
7171;SDS011;3627;46.544;14.944;2024-01-16T02:50:03;2.00;;;1.90;;
7171;SDS011;3627;46.544;14.944;2024-01-16T02:52:30;2.30;;;2.20;;
7171;SDS011;3627;46.544;14.944;2024-01-16T02:54:56;1.90;;;1.80;;
7171;SDS011;3627;46.544;14.944;2024-01-16T02:57:23;2.00;;;1.90;;
7171;SDS011;3627;46.544;14.944;2024-01-16T02:59:50;1.90;;;1.80;;
7171;SDS011;3627;46.544;14.944;2024-01-16T03:02:17;2.00;;;1.90;;
7171;SDS011;3627;46.544;14.944;2024-01-16T03:04:43;2.20;;;2.10;;
7171;SDS011;3627;46.544;14.944;2024-01-16T03:07:10;2.00;;;1.90;;
7171;SDS011;3627;46.544;14.944;2024-01-16T03:09:36;2.00;;;1.90;;
7171;SDS011;3627;46.544;14.944;2024-01-16T03:12:02;2.07;;;1.97;;
7171;SDS011;3627;46.544;14.944;2024-01-16T03:14:29;2.00;;;1.90;;
7171;SDS011;3627;46.544;14.944;2024-01-16T03:17:00;2.10;;;2.00;;
7171;SDS011;3627;46.544;14.944;2024-01-16T03:19:26;1.90;;;1.80;;
7171;SDS011;3627;46.544;14.944;2024-01-16T03:21:53;1.97;;;1.87;;
7171;SDS011;3627;46.544;14.944;2024-01-16T03:24:19;1.90;;;1.80;;
7171;SDS011;3627;46.544;14.944;2024-01-16T03:26:46;2.00;;;1.90;;
7171;SDS011;3627;46.544;14.944;2024-01-16T03:29:12;1.90;;;1.80;;
7171;SDS011;3627;46.544;14.944;2024-01-16T03:31:39;2.17;;;2.07;;
7171;SDS011;3627;46.544;14.944;2024-01-16T03:34:06;1.97;;;1.87;;
7171;SDS011;3627;46.544;14.944;2024-01-16T03:36:35;2.20;;;2.10;;
7171;SDS011;3627;46.544;14.944;2024-01-16T03:39:01;2.10;;;2.00;;
7171;SDS011;3627;46.544;14.944;2024-01-16T03:41:28;2.00;;;1.90;;
7171;SDS011;3627;46.544;14.944;2024-01-16T03:43:54;1.97;;;1.87;;
7171;SDS011;3627;46.544;14.944;2024-01-16T03:46:21;2.10;;;2.00;;
7171;SDS011;3627;46.544;14.944;2024-01-16T03:48:48;2.00;;;1.90;;
7171;SDS011;3627;46.544;14.944;2024-01-16T03:51:15;2.10;;;2.00;;
7171;SDS011;3627;46.544;14.944;2024-01-16T03:53:44;1.93;;;1.83;;
7171;SDS011;3627;46.544;14.944;2024-01-16T03:56:10;2.10;;;2.00;;
7171;SDS011;3627;46.544;14.944;2024-01-16T03:58:37;2.00;;;1.90;;
7171;SDS011;3627;46.544;14.944;2024-01-16T04:01:03;2.03;;;1.93;;
7171;SDS011;3627;46.544;14.944;2024-01-16T04:03:29;2.00;;;1.90;;
7171;SDS011;3627;46.544;14.944;2024-01-16T04:05:56;2.00;;;1.90;;
7171;SDS011;3627;46.544;14.944;2024-01-16T04:08:24;2.00;;;1.90;;
7171;SDS011;3627;46.544;14.944;2024-01-16T04:10:50;2.00;;;1.90;;
7171;SDS011;3627;46.544;14.944;2024-01-16T04:13:16;2.27;;;2.17;;
7171;SDS011;3627;46.544;14.944;2024-01-16T04:15:43;2.00;;;1.90;;
7171;SDS011;3627;46.544;14.944;2024-01-16T04:18:09;1.90;;;1.80;;
7171;SDS011;3627;46.544;14.944;2024-01-16T04:20:36;2.10;;;2.00;;
7171;SDS011;3627;46.544;14.944;2024-01-16T04:23:02;1.90;;;1.80;;
7171;SDS011;3627;46.544;14.944;2024-01-16T04:25:30;2.13;;;2.03;;
7171;SDS011;3627;46.544;14.944;2024-01-16T04:27:57;2.00;;;1.90;;
7171;SDS011;3627;46.544;14.944;2024-01-16T04:30:23;2.00;;;1.90;;
7171;SDS011;3627;46.544;14.944;2024-01-16T04:32:50;2.00;;;1.90;;
7171;SDS011;3627;46.544;14.944;2024-01-16T04:35:16;2.00;;;1.90;;
7171;SDS011;3627;46.544;14.944;2024-01-16T04:37:42;1.97;;;1.87;;
7171;SDS011;3627;46.544;14.944;2024-01-16T04:40:09;1.90;;;1.80;;
7171;SDS011;3627;46.544;14.944;2024-01-16T04:42:37;2.00;;;1.90;;
7171;SDS011;3627;46.544;14.944;2024-01-16T04:45:04;2.07;;;1.97;;
7171;SDS011;3627;46.544;14.944;2024-01-16T04:47:32;2.00;;;1.90;;
7171;SDS011;3627;46.544;14.944;2024-01-16T04:49:58;1.90;;;1.80;;
7171;SDS011;3627;46.544;14.944;2024-01-16T04:52:25;2.00;;;1.90;;
7171;SDS011;3627;46.544;14.944;2024-01-16T04:54:51;2.07;;;1.97;;
7171;SDS011;3627;46.544;14.944;2024-01-16T04:57:18;2.20;;;2.10;;
7171;SDS011;3627;46.544;14.944;2024-01-16T04:59:45;1.97;;;1.87;;
7171;SDS011;3627;46.544;14.944;2024-01-16T05:02:12;2.10;;;2.00;;
7171;SDS011;3627;46.544;14.944;2024-01-16T05:04:39;1.90;;;1.80;;
7171;SDS011;3627;46.544;14.944;2024-01-16T05:07:05;2.20;;;2.10;;
7171;SDS011;3627;46.544;14.944;2024-01-16T05:09:32;2.00;;;1.90;;
7171;SDS011;3627;46.544;14.944;2024-01-16T05:11:58;1.90;;;1.80;;
7171;SDS011;3627;46.544;14.944;2024-01-16T05:14:25;2.00;;;1.90;;
7171;SDS011;3627;46.544;14.944;2024-01-16T05:16:52;2.00;;;1.90;;
7171;SDS011;3627;46.544;14.944;2024-01-16T05:19:19;2.00;;;1.90;;
7171;SDS011;3627;46.544;14.944;2024-01-16T05:21:45;2.13;;;2.03;;
7171;SDS011;3627;46.544;14.944;2024-01-16T05:24:11;2.00;;;1.90;;
7171;SDS011;3627;46.544;14.944;2024-01-16T05:26:38;2.07;;;1.97;;
7171;SDS011;3627;46.544;14.944;2024-01-16T05:29:04;2.00;;;1.90;;
7171;SDS011;3627;46.544;14.944;2024-01-16T05:31:31;2.00;;;1.90;;
7171;SDS011;3627;46.544;14.944;2024-01-16T05:33:59;2.00;;;1.90;;
7171;SDS011;3627;46.544;14.944;2024-01-16T05:36:26;2.00;;;1.90;;
7171;SDS011;3627;46.544;14.944;2024-01-16T05:38:52;2.10;;;2.00;;
7171;SDS011;3627;46.544;14.944;2024-01-16T05:41:19;2.00;;;1.90;;
7171;SDS011;3627;46.544;14.944;2024-01-16T05:43:45;2.00;;;1.90;;
7171;SDS011;3627;46.544;14.944;2024-01-16T05:46:12;2.00;;;1.90;;
7171;SDS011;3627;46.544;14.944;2024-01-16T05:48:38;2.10;;;2.00;;
7171;SDS011;3627;46.544;14.944;2024-01-16T05:51:06;2.00;;;1.90;;
7171;SDS011;3627;46.544;14.944;2024-01-16T05:53:32;2.17;;;2.07;;
7171;SDS011;3627;46.544;14.944;2024-01-16T05:55:59;2.03;;;1.93;;
7171;SDS011;3627;46.544;14.944;2024-01-16T05:58:25;2.10;;;2.00;;
7171;SDS011;3627;46.544;14.944;2024-01-16T06:00:52;2.10;;;2.00;;
7171;SDS011;3627;46.544;14.944;2024-01-16T06:03:18;2.00;;;1.90;;
7171;SDS011;3627;46.544;14.944;2024-01-16T06:05:44;2.00;;;1.90;;
7171;SDS011;3627;46.544;14.944;2024-01-16T06:08:12;2.00;;;1.90;;
7171;SDS011;3627;46.544;14.944;2024-01-16T06:10:38;2.10;;;2.00;;
7171;SDS011;3627;46.544;14.944;2024-01-16T06:13:05;2.10;;;2.00;;
7171;SDS011;3627;46.544;14.944;2024-01-16T06:15:31;2.00;;;1.90;;
7171;SDS011;3627;46.544;14.944;2024-01-16T06:17:58;2.00;;;1.90;;
7171;SDS011;3627;46.544;14.944;2024-01-16T06:20:24;2.00;;;1.90;;
7171;SDS011;3627;46.544;14.944;2024-01-16T06:22:51;2.00;;;1.90;;
7171;SDS011;3627;46.544;14.944;2024-01-16T06:25:18;2.20;;;2.10;;
7171;SDS011;3627;46.544;14.944;2024-01-16T06:27:45;2.00;;;1.90;;
7171;SDS011;3627;46.544;14.944;2024-01-16T06:30:11;2.00;;;1.90;;
7171;SDS011;3627;46.544;14.944;2024-01-16T06:32:38;2.10;;;2.00;;
7171;SDS011;3627;46.544;14.944;2024-01-16T06:35:04;2.20;;;2.10;;
7171;SDS011;3627;46.544;14.944;2024-01-16T06:37:32;2.10;;;2.00;;
7171;SDS011;3627;46.544;14.944;2024-01-16T06:39:59;2.10;;;2.00;;
7171;SDS011;3627;46.544;14.944;2024-01-16T06:42:27;2.10;;;2.00;;
7171;SDS011;3627;46.544;14.944;2024-01-16T06:44:53;2.00;;;1.90;;
7171;SDS011;3627;46.544;14.944;2024-01-16T06:47:19;1.90;;;1.80;;
7171;SDS011;3627;46.544;14.944;2024-01-16T06:49:46;2.00;;;1.90;;
7171;SDS011;3627;46.544;14.944;2024-01-16T06:52:12;2.00;;;1.90;;
7171;SDS011;3627;46.544;14.944;2024-01-16T06:54:38;2.00;;;1.90;;
7171;SDS011;3627;46.544;14.944;2024-01-16T06:57:05;2.17;;;2.07;;
7171;SDS011;3627;46.544;14.944;2024-01-16T06:59:33;2.10;;;2.00;;
7171;SDS011;3627;46.544;14.944;2024-01-16T07:01:59;2.00;;;1.90;;
7171;SDS011;3627;46.544;14.944;2024-01-16T07:04:25;2.03;;;1.93;;
7171;SDS011;3627;46.544;14.944;2024-01-16T07:06:52;2.00;;;1.90;;
7171;SDS011;3627;46.544;14.944;2024-01-16T07:09:18;2.20;;;2.10;;
7171;SDS011;3627;46.544;14.944;2024-01-16T07:11:45;2.00;;;1.90;;
7171;SDS011;3627;46.544;14.944;2024-01-16T07:14:12;2.00;;;1.90;;
7171;SDS011;3627;46.544;14.944;2024-01-16T07:16:40;2.20;;;2.10;;
7171;SDS011;3627;46.544;14.944;2024-01-16T07:19:06;2.00;;;1.90;;
7171;SDS011;3627;46.544;14.944;2024-01-16T07:21:32;2.17;;;2.07;;
7171;SDS011;3627;46.544;14.944;2024-01-16T07:23:59;2.00;;;1.90;;
7171;SDS011;3627;46.544;14.944;2024-01-16T07:26:25;2.00;;;1.90;;
7171;SDS011;3627;46.544;14.944;2024-01-16T07:28:52;2.00;;;1.90;;
7171;SDS011;3627;46.544;14.944;2024-01-16T07:31:18;2.10;;;2.00;;
7171;SDS011;3627;46.544;14.944;2024-01-16T07:33:46;2.03;;;1.93;;
7171;SDS011;3627;46.544;14.944;2024-01-16T07:36:13;2.00;;;1.90;;
7171;SDS011;3627;46.544;14.944;2024-01-16T07:38:39;2.00;;;1.90;;
7171;SDS011;3627;46.544;14.944;2024-01-16T07:41:05;2.20;;;2.10;;
7171;SDS011;3627;46.544;14.944;2024-01-16T07:43:32;1.90;;;1.80;;
7171;SDS011;3627;46.544;14.944;2024-01-16T07:45:59;1.93;;;1.83;;
7171;SDS011;3627;46.544;14.944;2024-01-16T07:48:25;2.00;;;1.90;;
7171;SDS011;3627;46.544;14.944;2024-01-16T07:50:53;2.10;;;2.00;;
7171;SDS011;3627;46.544;14.944;2024-01-16T07:53:20;2.00;;;1.90;;
7171;SDS011;3627;46.544;14.944;2024-01-16T07:55:46;2.00;;;1.90;;
7171;SDS011;3627;46.544;14.944;2024-01-16T07:58:13;2.00;;;1.90;;
7171;SDS011;3627;46.544;14.944;2024-01-16T08:00:39;2.00;;;1.90;;
7171;SDS011;3627;46.544;14.944;2024-01-16T08:03:07;2.10;;;2.00;;
7171;SDS011;3627;46.544;14.944;2024-01-16T08:05:33;2.00;;;1.90;;
7171;SDS011;3627;46.544;14.944;2024-01-16T08:08:01;2.00;;;1.90;;
7171;SDS011;3627;46.544;14.944;2024-01-16T08:10:30;1.90;;;1.80;;
7171;SDS011;3627;46.544;14.944;2024-01-16T08:12:56;2.00;;;1.90;;
7171;SDS011;3627;46.544;14.944;2024-01-16T08:15:22;2.10;;;2.00;;
7171;SDS011;3627;46.544;14.944;2024-01-16T08:17:49;1.97;;;1.87;;
7171;SDS011;3627;46.544;14.944;2024-01-16T08:20:15;2.00;;;1.90;;
7171;SDS011;3627;46.544;14.944;2024-01-16T08:22:41;1.60;;;1.60;;
7171;SDS011;3627;46.544;14.944;2024-01-16T08:25:09;1.77;;;1.77;;
7171;SDS011;3627;46.544;14.944;2024-01-16T08:27:35;1.70;;;1.70;;
7171;SDS011;3627;46.544;14.944;2024-01-16T08:30:03;1.42;;;1.42;;
7171;SDS011;3627;46.544;14.944;2024-01-16T08:32:30;1.48;;;1.48;;
7171;SDS011;3627;46.544;14.944;2024-01-16T08:34:57;1.35;;;1.35;;
7171;SDS011;3627;46.544;14.944;2024-01-16T08:37:23;1.30;;;1.30;;
7171;SDS011;3627;46.544;14.944;2024-01-16T08:39:50;1.20;;;1.20;;
7171;SDS011;3627;46.544;14.944;2024-01-16T08:42:18;1.20;;;1.20;;
7171;SDS011;3627;46.544;14.944;2024-01-16T08:44:44;1.17;;;1.17;;
7171;SDS011;3627;46.544;14.944;2024-01-16T08:47:11;1.17;;;1.17;;
7171;SDS011;3627;46.544;14.944;2024-01-16T08:49:37;1.05;;;1.05;;
7171;SDS011;3627;46.544;14.944;2024-01-16T08:52:04;1.20;;;1.20;;
7171;SDS011;3627;46.544;14.944;2024-01-16T08:54:31;1.20;;;1.20;;
7171;SDS011;3627;46.544;14.944;2024-01-16T08:56:58;1.10;;;1.10;;
7171;SDS011;3627;46.544;14.944;2024-01-16T08:59:25;0.90;;;0.90;;
7171;SDS011;3627;46.544;14.944;2024-01-16T09:01:53;1.02;;;1.02;;
7171;SDS011;3627;46.544;14.944;2024-01-16T09:04:19;1.00;;;1.00;;
7171;SDS011;3627;46.544;14.944;2024-01-16T09:06:46;1.00;;;1.00;;
7171;SDS011;3627;46.544;14.944;2024-01-16T09:09:12;1.08;;;1.08;;
7171;SDS011;3627;46.544;14.944;2024-01-16T09:11:40;1.10;;;1.10;;
7171;SDS011;3627;46.544;14.944;2024-01-16T09:14:07;1.13;;;1.13;;
7171;SDS011;3627;46.544;14.944;2024-01-16T09:16:35;1.00;;;1.00;;
7171;SDS011;3627;46.544;14.944;2024-01-16T09:19:01;0.90;;;0.90;;
7171;SDS011;3627;46.544;14.944;2024-01-16T09:21:28;0.90;;;0.90;;
7171;SDS011;3627;46.544;14.944;2024-01-16T09:23:54;0.82;;;0.82;;
7171;SDS011;3627;46.544;14.944;2024-01-16T09:26:20;0.93;;;0.93;;
7171;SDS011;3627;46.544;14.944;2024-01-16T09:28:47;0.82;;;0.82;;
7171;SDS011;3627;46.544;14.944;2024-01-16T09:31:14;0.80;;;0.80;;
7171;SDS011;3627;46.544;14.944;2024-01-16T09:33:42;0.80;;;0.80;;
7171;SDS011;3627;46.544;14.944;2024-01-16T09:36:09;1.00;;;1.00;;
7171;SDS011;3627;46.544;14.944;2024-01-16T09:38:36;0.80;;;0.80;;
7171;SDS011;3627;46.544;14.944;2024-01-16T09:41:02;0.90;;;0.90;;
7171;SDS011;3627;46.544;14.944;2024-01-16T09:43:28;0.80;;;0.80;;
7171;SDS011;3627;46.544;14.944;2024-01-16T09:45:56;0.88;;;0.88;;
7171;SDS011;3627;46.544;14.944;2024-01-16T09:48:23;0.80;;;0.80;;
7171;SDS011;3627;46.544;14.944;2024-01-16T09:50:51;0.70;;;0.70;;
7171;SDS011;3627;46.544;14.944;2024-01-16T09:53:18;0.80;;;0.80;;
7171;SDS011;3627;46.544;14.944;2024-01-16T09:55:44;0.82;;;0.82;;
7171;SDS011;3627;46.544;14.944;2024-01-16T09:58:11;0.70;;;0.70;;
7171;SDS011;3627;46.544;14.944;2024-01-16T10:00:39;0.70;;;0.70;;
7171;SDS011;3627;46.544;14.944;2024-01-16T10:03:06;0.70;;;0.70;;
7171;SDS011;3627;46.544;14.944;2024-01-16T10:05:33;0.68;;;0.68;;
7171;SDS011;3627;46.544;14.944;2024-01-16T10:08:02;0.70;;;0.70;;
7171;SDS011;3627;46.544;14.944;2024-01-16T10:10:28;0.60;;;0.60;;
7171;SDS011;3627;46.544;14.944;2024-01-16T10:12:54;0.60;;;0.60;;
7171;SDS011;3627;46.544;14.944;2024-01-16T10:15:21;0.55;;;0.55;;
7171;SDS011;3627;46.544;14.944;2024-01-16T10:17:48;0.50;;;0.50;;
7171;SDS011;3627;46.544;14.944;2024-01-16T10:20:14;0.60;;;0.60;;
7171;SDS011;3627;46.544;14.944;2024-01-16T10:22:51;0.68;;;0.68;;
7171;SDS011;3627;46.544;14.944;2024-01-16T10:25:19;0.60;;;0.60;;
7171;SDS011;3627;46.544;14.944;2024-01-16T10:27:47;0.60;;;0.60;;
7171;SDS011;3627;46.544;14.944;2024-01-16T10:30:13;0.60;;;0.60;;
7171;SDS011;3627;46.544;14.944;2024-01-16T10:32:40;0.63;;;0.63;;
7171;SDS011;3627;46.544;14.944;2024-01-16T10:35:07;0.70;;;0.70;;
7171;SDS011;3627;46.544;14.944;2024-01-16T10:37:41;0.70;;;0.70;;
7171;SDS011;3627;46.544;14.944;2024-01-16T10:40:09;0.50;;;0.50;;
7171;SDS011;3627;46.544;14.944;2024-01-16T10:42:37;0.60;;;0.60;;
7171;SDS011;3627;46.544;14.944;2024-01-16T10:45:04;0.60;;;0.60;;
7171;SDS011;3627;46.544;14.944;2024-01-16T10:47:31;0.60;;;0.60;;
7171;SDS011;3627;46.544;14.944;2024-01-16T10:49:59;0.70;;;0.70;;
7171;SDS011;3627;46.544;14.944;2024-01-16T10:52:27;0.80;;;0.80;;
7171;SDS011;3627;46.544;14.944;2024-01-16T10:54:54;0.90;;;0.90;;
7171;SDS011;3627;46.544;14.944;2024-01-16T10:57:23;1.02;;;1.02;;
7171;SDS011;3627;46.544;14.944;2024-01-16T10:59:55;1.00;;;1.00;;
7171;SDS011;3627;46.544;14.944;2024-01-16T11:02:26;1.10;;;1.10;;
7171;SDS011;3627;46.544;14.944;2024-01-16T11:04:54;1.08;;;1.08;;
7171;SDS011;3627;46.544;14.944;2024-01-16T11:07:20;1.10;;;1.10;;
7171;SDS011;3627;46.544;14.944;2024-01-16T11:09:47;1.10;;;1.10;;
7171;SDS011;3627;46.544;14.944;2024-01-16T11:12:14;1.27;;;1.27;;
7171;SDS011;3627;46.544;14.944;2024-01-16T11:14:42;1.10;;;1.10;;
7171;SDS011;3627;46.544;14.944;2024-01-16T11:17:11;1.20;;;1.20;;
7171;SDS011;3627;46.544;14.944;2024-01-16T11:19:43;1.30;;;1.30;;
7171;SDS011;3627;46.544;14.944;2024-01-16T11:22:09;1.25;;;1.25;;
7171;SDS011;3627;46.544;14.944;2024-01-16T11:24:36;1.25;;;1.25;;
7171;SDS011;3627;46.544;14.944;2024-01-16T11:27:03;1.35;;;1.35;;
7171;SDS011;3627;46.544;14.944;2024-01-16T11:29:36;1.20;;;1.20;;
7171;SDS011;3627;46.544;14.944;2024-01-16T11:32:03;1.20;;;1.20;;
7171;SDS011;3627;46.544;14.944;2024-01-16T11:37:19;1.38;;;1.38;;
7171;SDS011;3627;46.544;14.944;2024-01-16T11:39:52;1.30;;;1.30;;
7171;SDS011;3627;46.544;14.944;2024-01-16T11:42:25;1.20;;;1.20;;
7171;SDS011;3627;46.544;14.944;2024-01-16T11:44:51;1.40;;;1.40;;
7171;SDS011;3627;46.544;14.944;2024-01-16T11:47:19;1.33;;;1.33;;
7171;SDS011;3627;46.544;14.944;2024-01-16T11:49:46;1.30;;;1.30;;
7171;SDS011;3627;46.544;14.944;2024-01-16T11:52:12;1.38;;;1.38;;
7171;SDS011;3627;46.544;14.944;2024-01-16T11:54:40;1.40;;;1.40;;
7171;SDS011;3627;46.544;14.944;2024-01-16T12:00:04;1.42;;;1.42;;
7171;SDS011;3627;46.544;14.944;2024-01-16T12:02:49;1.48;;;1.48;;
7171;SDS011;3627;46.544;14.944;2024-01-16T12:05:17;1.40;;;1.40;;
7171;SDS011;3627;46.544;14.944;2024-01-16T12:07:46;1.40;;;1.40;;
7171;SDS011;3627;46.544;14.944;2024-01-16T12:10:15;1.40;;;1.40;;
7171;SDS011;3627;46.544;14.944;2024-01-16T12:12:42;1.40;;;1.40;;
7171;SDS011;3627;46.544;14.944;2024-01-16T12:15:12;1.30;;;1.30;;
7171;SDS011;3627;46.544;14.944;2024-01-16T12:17:45;1.30;;;1.30;;
7171;SDS011;3627;46.544;14.944;2024-01-16T12:20:17;1.40;;;1.40;;
7171;SDS011;3627;46.544;14.944;2024-01-16T12:22:44;1.30;;;1.30;;
7171;SDS011;3627;46.544;14.944;2024-01-16T12:25:10;1.30;;;1.30;;
7171;SDS011;3627;46.544;14.944;2024-01-16T12:27:39;1.30;;;1.30;;
7171;SDS011;3627;46.544;14.944;2024-01-16T12:30:06;1.50;;;1.50;;
7171;SDS011;3627;46.544;14.944;2024-01-16T12:32:32;1.30;;;1.30;;
7171;SDS011;3627;46.544;14.944;2024-01-16T12:34:59;1.40;;;1.40;;
7171;SDS011;3627;46.544;14.944;2024-01-16T12:37:25;1.33;;;1.33;;
7171;SDS011;3627;46.544;14.944;2024-01-16T12:39:51;1.40;;;1.40;;
7171;SDS011;3627;46.544;14.944;2024-01-16T12:42:18;1.40;;;1.40;;
7171;SDS011;3627;46.544;14.944;2024-01-16T12:44:46;1.40;;;1.40;;
7171;SDS011;3627;46.544;14.944;2024-01-16T12:47:14;1.20;;;1.20;;
7171;SDS011;3627;46.544;14.944;2024-01-16T12:49:41;1.30;;;1.30;;
7171;SDS011;3627;46.544;14.944;2024-01-16T12:52:17;1.40;;;1.40;;
7171;SDS011;3627;46.544;14.944;2024-01-16T12:54:44;1.50;;;1.50;;
7171;SDS011;3627;46.544;14.944;2024-01-16T12:57:16;1.33;;;1.33;;
7171;SDS011;3627;46.544;14.944;2024-01-16T12:59:42;1.48;;;1.48;;
7171;SDS011;3627;46.544;14.944;2024-01-16T13:02:10;1.50;;;1.50;;
7171;SDS011;3627;46.544;14.944;2024-01-16T13:04:36;1.40;;;1.40;;
7171;SDS011;3627;46.544;14.944;2024-01-16T13:07:03;1.50;;;1.50;;
7171;SDS011;3627;46.544;14.944;2024-01-16T13:09:30;1.38;;;1.38;;
7171;SDS011;3627;46.544;14.944;2024-01-16T13:11:56;1.40;;;1.40;;
7171;SDS011;3627;46.544;14.944;2024-01-16T13:14:23;1.40;;;1.40;;
7171;SDS011;3627;46.544;14.944;2024-01-16T13:16:50;1.27;;;1.27;;
7171;SDS011;3627;46.544;14.944;2024-01-16T13:19:18;1.40;;;1.40;;
7171;SDS011;3627;46.544;14.944;2024-01-16T13:21:45;1.40;;;1.40;;
7171;SDS011;3627;46.544;14.944;2024-01-16T13:24:11;1.33;;;1.33;;
7171;SDS011;3627;46.544;14.944;2024-01-16T13:26:38;1.40;;;1.40;;
7171;SDS011;3627;46.544;14.944;2024-01-16T13:29:05;1.35;;;1.35;;
7171;SDS011;3627;46.544;14.944;2024-01-16T13:31:32;1.50;;;1.50;;
7171;SDS011;3627;46.544;14.944;2024-01-16T13:33:58;1.40;;;1.40;;
7171;SDS011;3627;46.544;14.944;2024-01-16T13:36:26;1.20;;;1.20;;
7171;SDS011;3627;46.544;14.944;2024-01-16T13:38:53;1.60;;;1.60;;
7171;SDS011;3627;46.544;14.944;2024-01-16T13:41:19;1.40;;;1.40;;
7171;SDS011;3627;46.544;14.944;2024-01-16T13:43:46;1.40;;;1.40;;
7171;SDS011;3627;46.544;14.944;2024-01-16T13:46:14;1.30;;;1.30;;
7171;SDS011;3627;46.544;14.944;2024-01-16T13:48:42;1.40;;;1.40;;
7171;SDS011;3627;46.544;14.944;2024-01-16T13:51:09;1.42;;;1.42;;
7171;SDS011;3627;46.544;14.944;2024-01-16T13:53:37;1.50;;;1.50;;
7171;SDS011;3627;46.544;14.944;2024-01-16T13:56:03;1.30;;;1.30;;
7171;SDS011;3627;46.544;14.944;2024-01-16T13:58:30;1.48;;;1.48;;
7171;SDS011;3627;46.544;14.944;2024-01-16T14:00:56;1.60;;;1.60;;
7171;SDS011;3627;46.544;14.944;2024-01-16T14:03:23;1.50;;;1.50;;
7171;SDS011;3627;46.544;14.944;2024-01-16T14:05:49;1.30;;;1.30;;
7171;SDS011;3627;46.544;14.944;2024-01-16T14:08:15;1.40;;;1.40;;
7171;SDS011;3627;46.544;14.944;2024-01-16T14:10:43;1.40;;;1.40;;
7171;SDS011;3627;46.544;14.944;2024-01-16T14:13:10;1.30;;;1.30;;
7171;SDS011;3627;46.544;14.944;2024-01-16T14:15:36;1.40;;;1.40;;
7171;SDS011;3627;46.544;14.944;2024-01-16T14:18:03;1.40;;;1.40;;
7171;SDS011;3627;46.544;14.944;2024-01-16T14:20:29;1.40;;;1.40;;
7171;SDS011;3627;46.544;14.944;2024-01-16T14:22:55;1.50;;;1.50;;
7171;SDS011;3627;46.544;14.944;2024-01-16T14:25:21;1.50;;;1.50;;
7171;SDS011;3627;46.544;14.944;2024-01-16T14:27:58;1.40;;;1.40;;
7171;SDS011;3627;46.544;14.944;2024-01-16T14:30:25;1.40;;;1.40;;
7171;SDS011;3627;46.544;14.944;2024-01-16T14:32:51;1.42;;;1.42;;
7171;SDS011;3627;46.544;14.944;2024-01-16T14:35:18;1.40;;;1.40;;
7171;SDS011;3627;46.544;14.944;2024-01-16T14:37:44;1.60;;;1.60;;
7171;SDS011;3627;46.544;14.944;2024-01-16T14:40:11;1.50;;;1.50;;
7171;SDS011;3627;46.544;14.944;2024-01-16T14:42:41;1.40;;;1.40;;
7171;SDS011;3627;46.544;14.944;2024-01-16T14:45:09;1.50;;;1.50;;
7171;SDS011;3627;46.544;14.944;2024-01-16T14:47:36;1.60;;;1.60;;
7171;SDS011;3627;46.544;14.944;2024-01-16T14:50:02;1.70;;;1.70;;
7171;SDS011;3627;46.544;14.944;2024-01-16T14:52:29;1.58;;;1.58;;
7171;SDS011;3627;46.544;14.944;2024-01-16T14:54:57;1.60;;;1.60;;
7171;SDS011;3627;46.544;14.944;2024-01-16T14:57:23;1.60;;;1.60;;
7171;SDS011;3627;46.544;14.944;2024-01-16T14:59:50;1.55;;;1.55;;
7171;SDS011;3627;46.544;14.944;2024-01-16T15:02:17;1.50;;;1.50;;
7171;SDS011;3627;46.544;14.944;2024-01-16T15:04:45;1.53;;;1.53;;